Time;durP1;ratioP1;P1;durP2;ratioP2;P2;SDS_P1;SDS_P2;PMS_P1;PMS_P2;Temp;Humidity;BMP_temperature;BMP_pressure;BME280_temperature;BME280_humidity;BME280_pressure;Samples;Min_cycle;Max_cycle;Signal;HPM_P1;HPM_P2
2022/10/09 00:02:16;;;;;;;0.10;0.10;;;;;;;5.50;100.00;102508.09;4977497;28;20033;-75
2022/10/09 00:04:41;;;;;;;0.10;0.10;;;;;;;5.21;100.00;102512.47;4980288;28;20034;-75
2022/10/09 00:07:06;;;;;;;0.10;0.10;;;;;;;5.10;100.00;102504.78;4980853;28;20046;-75
2022/10/09 00:09:32;;;;;;;0.10;0.10;;;;;;;5.10;100.00;102507.47;4979156;28;20148;-75
2022/10/09 00:11:57;;;;;;;0.10;0.10;;;;;;;5.09;100.00;102507.47;4982399;28;20033;-74
2022/10/09 00:14:22;;;;;;;0.00;0.00;;;;;;;5.03;100.00;102497.88;4978060;28;20065;-75
2022/10/09 00:16:47;;;;;;;0.10;0.10;;;;;;;4.89;100.00;102497.41;4976332;28;20027;-75
2022/10/09 00:19:13;;;;;;;0.10;0.10;;;;;;;4.86;100.00;102522.31;4975417;28;20038;-75
2022/10/09 00:21:38;;;;;;;0.10;0.10;;;;;;;4.70;100.00;102502.34;4980398;28;20108;-75
2022/10/09 00:24:04;;;;;;;0.10;0.10;;;;;;;4.76;100.00;102489.75;4981929;28;20045;-75
2022/10/09 00:26:30;;;;;;;0.10;0.10;;;;;;;4.68;100.00;102465.13;4957848;28;20054;-75
2022/10/09 00:28:55;;;;;;;0.10;0.10;;;;;;;4.77;100.00;102485.28;4985900;28;20041;-75
2022/10/09 00:31:21;;;;;;;0.00;0.00;;;;;;;4.77;100.00;102509.22;4985520;28;20433;-75
2022/10/09 00:33:46;;;;;;;0.10;0.10;;;;;;;4.58;100.00;102490.25;4973077;28;20065;-75
2022/10/09 00:36:14;;;;;;;0.00;0.00;;;;;;;4.60;100.00;102512.34;4982117;28;20041;-75
2022/10/09 00:38:40;;;;;;;0.10;0.10;;;;;;;4.60;100.00;102512.34;4993997;28;20030;-75
2022/10/09 00:41:05;;;;;;;0.10;0.10;;;;;;;4.56;100.00;102514.19;4986327;28;20037;-75
2022/10/09 00:43:44;;;;;;;0.10;0.10;;;;;;;4.49;100.00;102513.50;4967562;28;20068;-74
2022/10/09 00:46:17;;;;;;;0.10;0.10;;;;;;;4.49;100.00;102504.66;4989274;28;20030;-75
2022/10/09 00:48:43;;;;;;;0.10;0.10;;;;;;;4.49;100.00;102496.69;4983230;28;20089;-74
2022/10/09 00:51:08;;;;;;;0.00;0.00;;;;;;;4.19;100.00;102468.13;4986700;28;20544;-75
2022/10/09 00:53:34;;;;;;;0.10;0.10;;;;;;;4.30;100.00;102486.47;4967060;28;20495;-75
2022/10/09 00:55:59;;;;;;;0.10;0.10;;;;;;;4.28;100.00;102500.75;4976532;28;20358;-75
2022/10/09 00:58:24;;;;;;;0.10;0.10;;;;;;;4.23;100.00;102498.19;4988095;28;20034;-74
2022/10/09 01:00:50;;;;;;;0.00;0.00;;;;;;;4.25;100.00;102512.31;4970588;28;20142;-75
2022/10/09 01:03:15;;;;;;;0.10;0.10;;;;;;;4.27;100.00;102506.97;4977331;28;20030;-75
2022/10/09 01:06:01;;;;;;;0.10;0.10;;;;;;;4.27;100.00;102509.63;4979342;28;20030;-75
2022/10/09 01:08:38;;;;;;;0.10;0.10;;;;;;;4.14;100.00;102471.84;4979289;28;20021;-74
2022/10/09 01:11:12;;;;;;;0.10;0.10;;;;;;;4.44;100.00;102509.22;4979574;28;20525;-75
2022/10/09 01:13:45;;;;;;;0.20;0.20;;;;;;;4.50;100.00;102501.09;4999910;28;20026;-74
2022/10/09 01:16:46;;;;;;;0.15;0.15;;;;;;;4.62;100.00;102506.06;4983385;28;20609;-74
2022/10/09 01:19:14;;;;;;;0.00;0.00;;;;;;;4.69;100.00;102503.25;4918364;29;20123;-75
2022/10/09 01:21:39;;;;;;;0.20;0.20;;;;;;;4.74;100.00;102510.19;4964182;28;20309;-74
2022/10/09 01:24:49;;;;;;;0.10;0.10;;;;;;;4.80;100.00;102496.72;4980504;28;20037;-75
2022/10/09 01:27:18;;;;;;;0.10;0.10;;;;;;;4.49;100.00;102470.94;4977981;28;20593;-76
2022/10/09 01:29:47;;;;;;;0.10;0.10;;;;;;;4.48;100.00;102495.78;4969462;28;20069;-74
2022/10/09 01:32:17;;;;;;;0.10;0.10;;;;;;;4.32;100.00;102497.09;4988314;28;20061;-75
2022/10/09 01:34:43;;;;;;;0.10;0.10;;;;;;;4.22;100.00;102493.78;4980989;28;20030;-75
2022/10/09 01:37:10;;;;;;;0.10;0.10;;;;;;;3.90;100.00;102447.59;4983049;28;20041;-75
2022/10/09 01:39:36;;;;;;;0.10;0.10;;;;;;;4.03;100.00;102478.28;4981797;28;20041;-75
2022/10/09 01:42:01;;;;;;;0.10;0.10;;;;;;;4.08;100.00;102480.84;4984920;28;20030;-75
2022/10/09 01:44:28;;;;;;;0.10;0.10;;;;;;;4.12;100.00;102485.13;4972720;28;20473;-74
2022/10/09 01:46:54;;;;;;;0.10;0.10;;;;;;;4.13;100.00;102484.22;4981703;28;20057;-74
2022/10/09 01:49:41;;;;;;;0.10;0.10;;;;;;;4.05;100.00;102487.09;4983368;28;20018;-74
2022/10/09 01:52:35;;;;;;;0.10;0.10;;;;;;;3.68;100.00;102450.75;4979806;28;20026;-74
2022/10/09 01:55:15;;;;;;;0.10;0.10;;;;;;;3.86;100.00;102491.09;4961804;28;20053;-73
2022/10/09 01:57:49;;;;;;;0.10;0.10;;;;;;;3.86;100.00;102476.00;4972439;28;20077;-74
2022/10/09 02:00:15;;;;;;;0.10;0.10;;;;;;;3.79;100.00;102455.81;4979599;28;20480;-74
2022/10/09 02:02:41;;;;;;;0.10;0.10;;;;;;;3.87;100.00;102466.25;4978899;28;20396;-75
2022/10/09 02:05:09;;;;;;;0.10;0.10;;;;;;;3.82;100.00;102461.06;4972846;28;20057;-75
2022/10/09 02:07:34;;;;;;;0.10;0.10;;;;;;;3.36;100.00;102406.31;4978340;28;20030;-74
2022/10/09 02:10:01;;;;;;;0.10;0.10;;;;;;;3.54;100.00;102459.03;4979946;28;20053;-74
2022/10/09 02:12:28;;;;;;;0.10;0.10;;;;;;;3.26;100.00;102459.63;4982640;28;20066;-75
2022/10/09 02:14:54;;;;;;;0.10;0.10;;;;;;;3.23;100.00;102470.31;4985476;28;20488;-74
2022/10/09 02:17:22;;;;;;;0.10;0.10;;;;;;;3.28;100.00;102470.22;4982193;28;20035;-75
2022/10/09 02:19:51;;;;;;;0.10;0.10;;;;;;;3.26;100.00;102456.09;4983326;28;20041;-74
2022/10/09 02:22:19;;;;;;;0.10;0.10;;;;;;;3.45;100.00;102469.84;4963989;28;20152;-74
2022/10/09 02:24:45;;;;;;;0.10;0.10;;;;;;;3.45;100.00;102449.47;4960672;28;20034;-74
2022/10/09 02:27:11;;;;;;;0.10;0.10;;;;;;;3.68;100.00;102468.47;4980554;28;20397;-74
2022/10/09 02:29:41;;;;;;;0.10;0.10;;;;;;;3.67;100.00;102464.94;4982302;28;20042;-75
2022/10/09 02:32:07;;;;;;;0.13;0.13;;;;;;;3.57;100.00;102460.75;4966255;28;20480;-74
2022/10/09 02:34:32;;;;;;;0.10;0.10;;;;;;;3.57;100.00;102464.28;4979396;28;20085;-74
2022/10/09 02:36:57;;;;;;;0.10;0.10;;;;;;;3.56;100.00;102457.22;4984482;28;20029;-74
2022/10/09 02:39:23;;;;;;;0.10;0.10;;;;;;;3.65;100.00;102458.81;4981099;28;20033;-74
2022/10/09 02:41:48;;;;;;;0.20;0.20;;;;;;;3.62;100.00;102450.91;4983507;28;20026;-74
2022/10/09 02:44:13;;;;;;;0.10;0.10;;;;;;;3.65;100.00;102444.63;4981613;28;20100;-74
2022/10/09 02:46:38;;;;;;;0.10;0.10;;;;;;;3.56;100.00;102459.00;4980184;28;20472;-74
2022/10/09 02:49:05;;;;;;;0.10;0.10;;;;;;;3.50;100.00;102457.34;4977025;28;20783;-74
2022/10/09 02:51:30;;;;;;;0.10;0.10;;;;;;;3.23;100.00;102440.22;4976726;28;20038;-74
2022/10/09 02:53:55;;;;;;;0.10;0.10;;;;;;;3.22;100.00;102452.63;4971146;28;20050;-74
2022/10/09 02:56:22;;;;;;;0.10;0.10;;;;;;;2.77;100.00;102389.00;4979179;28;20053;-74
2022/10/09 02:58:47;;;;;;;0.10;0.10;;;;;;;3.10;100.00;102448.47;4964423;28;20622;-74
2022/10/09 03:01:12;;;;;;;0.10;0.10;;;;;;;2.90;100.00;102443.53;4983398;28;20044;-73
2022/10/09 03:03:38;;;;;;;0.10;0.10;;;;;;;2.89;100.00;102451.56;4976755;28;20030;-75
2022/10/09 03:06:08;;;;;;;0.10;0.10;;;;;;;2.82;100.00;102459.63;4982597;28;20058;-74
2022/10/09 03:08:34;;;;;;;0.10;0.10;;;;;;;2.80;100.00;102457.88;4980733;28;20061;-74
2022/10/09 03:10:59;;;;;;;0.10;0.10;;;;;;;2.89;100.00;102451.56;4984409;28;20034;-74
2022/10/09 03:13:25;;;;;;;0.17;0.17;;;;;;;2.93;100.00;102447.91;4983053;28;20483;-74
2022/10/09 03:15:50;;;;;;;0.10;0.10;;;;;;;2.94;100.00;102441.69;4985137;28;20704;-74
2022/10/09 03:18:15;;;;;;;0.10;0.10;;;;;;;3.06;100.00;102457.38;4987423;28;20061;-74
2022/10/09 03:20:40;;;;;;;0.10;0.10;;;;;;;3.13;100.00;102450.16;4978990;28;20035;-74
2022/10/09 03:23:06;;;;;;;0.20;0.20;;;;;;;3.17;100.00;102435.94;4959826;28;20058;-75
2022/10/09 03:25:31;;;;;;;0.10;0.10;;;;;;;3.22;100.00;102425.22;4979180;28;20374;-74
2022/10/09 03:27:56;;;;;;;0.10;0.10;;;;;;;3.25;100.00;102430.44;4984152;28;20030;-74
2022/10/09 03:30:22;;;;;;;0.10;0.10;;;;;;;3.21;100.00;102428.75;4981082;28;20536;-74
2022/10/09 03:32:47;;;;;;;0.10;0.10;;;;;;;3.11;100.00;102420.13;4983296;28;20061;-75
2022/10/09 03:35:12;;;;;;;0.10;0.10;;;;;;;3.20;100.00;102434.97;4978172;28;20088;-74
2022/10/09 03:37:37;;;;;;;0.10;0.10;;;;;;;3.14;100.00;102443.94;4971226;28;20410;-74
2022/10/09 03:40:03;;;;;;;0.10;0.10;;;;;;;3.08;100.00;102444.06;4984879;28;20030;-74
2022/10/09 03:42:29;;;;;;;0.10;0.10;;;;;;;2.94;100.00;102424.00;4986070;28;20038;-75
2022/10/09 03:44:54;;;;;;;0.20;0.20;;;;;;;2.97;100.00;102434.56;4976710;28;20072;-74
2022/10/09 03:47:19;;;;;;;0.10;0.10;;;;;;;2.93;100.00;102432.00;4983922;28;20015;-74
2022/10/09 03:49:45;;;;;;;0.10;0.10;;;;;;;2.72;100.00;102396.19;4979479;28;20466;-74
2022/10/09 03:52:10;;;;;;;0.10;0.10;;;;;;;2.88;100.00;102413.53;4979443;28;20038;-74
2022/10/09 03:54:35;;;;;;;0.10;0.10;;;;;;;2.96;100.00;102432.81;4981328;28;20026;-75
2022/10/09 03:57:01;;;;;;;0.10;0.10;;;;;;;2.70;100.00;102398.84;4976833;28;20060;-74
2022/10/09 03:59:26;;;;;;;0.20;0.20;;;;;;;2.88;100.00;102442.69;4973545;28;20033;-76
2022/10/09 04:01:51;;;;;;;0.10;0.10;;;;;;;2.64;100.00;102417.53;4977304;28;20038;-74
2022/10/09 04:04:16;;;;;;;0.10;0.10;;;;;;;2.65;100.00;102419.31;4975939;28;20129;-76
2022/10/09 04:06:42;;;;;;;0.20;0.20;;;;;;;2.74;100.00;102442.13;4974516;28;20061;-76
2022/10/09 04:09:08;;;;;;;0.10;0.10;;;;;;;2.79;100.00;102438.47;4974931;28;20519;-76
2022/10/09 04:11:33;;;;;;;0.10;0.10;;;;;;;2.70;100.00;102423.59;4974474;28;20428;-76
2022/10/09 04:13:59;;;;;;;0.10;0.10;;;;;;;2.64;100.00;102430.81;4980169;28;20476;-74
2022/10/09 04:16:24;;;;;;;0.10;0.10;;;;;;;2.60;100.00;102429.13;4987640;28;20449;-76
2022/10/09 04:18:50;;;;;;;0.10;0.10;;;;;;;2.68;100.00;102451.94;4984869;28;20038;-75
2022/10/09 04:21:16;;;;;;;0.10;0.10;;;;;;;2.76;100.00;102442.97;4989746;28;20065;-76
2022/10/09 04:23:41;;;;;;;0.17;0.17;;;;;;;2.82;100.00;102449.00;4982142;28;20483;-75
2022/10/09 04:26:06;;;;;;;0.10;0.10;;;;;;;2.77;100.00;102434.09;4974441;28;20030;-75
2022/10/09 04:28:32;;;;;;;0.10;0.10;;;;;;;2.84;100.00;102449.88;4986529;28;20110;-75
2022/10/09 04:30:58;;;;;;;0.10;0.10;;;;;;;2.68;100.00;102424.50;4978960;28;20038;-75
2022/10/09 04:33:24;;;;;;;0.10;0.10;;;;;;;2.83;100.00;102440.16;4979691;28;20777;-75
2022/10/09 04:35:51;;;;;;;0.10;0.10;;;;;;;2.66;100.00;102410.41;4988939;28;20042;-76
2022/10/09 04:38:17;;;;;;;0.10;0.10;;;;;;;2.89;100.00;102436.50;4977004;28;20036;-75
2022/10/09 04:40:42;;;;;;;0.10;0.10;;;;;;;2.93;100.00;102446.16;4986519;28;20034;-75
2022/10/09 04:43:07;;;;;;;0.10;0.10;;;;;;;2.74;100.00;102431.50;4982300;28;20033;-74
2022/10/09 04:45:32;;;;;;;0.10;0.10;;;;;;;2.72;100.00;102439.47;4976962;28;20552;-76
2022/10/09 04:47:58;;;;;;;0.10;0.10;;;;;;;2.64;100.00;102441.41;4984917;28;20046;-75
2022/10/09 04:50:23;;;;;;;0.10;0.10;;;;;;;2.59;100.00;102444.13;4985956;28;20038;-75
2022/10/09 04:52:49;;;;;;;0.10;0.10;;;;;;;2.54;100.00;102430.06;4978040;28;20033;-76
2022/10/09 04:55:14;;;;;;;0.10;0.10;;;;;;;2.60;100.00;102435.28;4973282;28;20030;-76
2022/10/09 04:57:39;;;;;;;0.10;0.10;;;;;;;2.42;100.00;102403.81;4973061;28;20104;-75
2022/10/09 05:00:05;;;;;;;0.10;0.10;;;;;;;2.56;100.00;102430.94;4974891;28;20122;-75
2022/10/09 05:02:30;;;;;;;0.10;0.10;;;;;;;2.32;100.00;102400.47;4970300;28;20129;-76
2022/10/09 05:04:56;;;;;;;0.10;0.10;;;;;;;2.52;100.00;102431.88;4977566;28;20053;-76
2022/10/09 05:07:22;;;;;;;0.10;0.10;;;;;;;2.46;100.00;102424.91;4978062;28;20022;-76
2022/10/09 05:09:47;;;;;;;0.10;0.10;;;;;;;2.23;100.00;102390.91;4975298;28;20082;-75
2022/10/09 05:12:12;;;;;;;0.10;0.10;;;;;;;2.42;100.00;102423.22;4973954;28;22519;-76
2022/10/09 05:14:38;;;;;;;0.10;0.10;;;;;;;2.10;100.00;102392.88;4976372;28;20041;-75
2022/10/09 05:17:04;;;;;;;0.20;0.20;;;;;;;1.95;100.00;102400.19;4975886;28;20310;-76
2022/10/09 05:19:30;;;;;;;0.20;0.20;;;;;;;1.85;100.00;102385.34;4973249;28;20750;-76
2022/10/09 05:21:55;;;;;;;0.10;0.10;;;;;;;1.97;100.00;102410.78;4971333;28;20040;-76
2022/10/09 05:24:21;;;;;;;0.10;0.10;;;;;;;2.02;100.00;102419.50;4975945;28;20034;-76
2022/10/09 05:26:46;;;;;;;0.10;0.10;;;;;;;1.84;100.00;102380.06;4978005;28;20037;-75
2022/10/09 05:29:11;;;;;;;0.20;0.20;;;;;;;2.04;100.00;102414.19;4994565;28;20101;-76
2022/10/09 05:31:37;;;;;;;0.20;0.20;;;;;;;1.84;100.00;102383.59;4975352;28;20461;-75
2022/10/09 05:34:02;;;;;;;0.10;0.10;;;;;;;1.90;100.00;102415.28;4977322;28;20037;-76
2022/10/09 05:36:28;;;;;;;0.13;0.13;;;;;;;1.83;100.00;102416.28;4975533;28;20113;-75
2022/10/09 05:38:54;;;;;;;0.10;0.10;;;;;;;1.77;100.00;102411.06;4981855;28;20035;-75
2022/10/09 05:41:19;;;;;;;0.10;0.10;;;;;;;1.80;100.00;102408.38;4976948;28;20045;-76
2022/10/09 05:43:46;;;;;;;0.20;0.20;;;;;;;1.83;100.00;102408.34;4981051;28;20038;-76
2022/10/09 05:46:20;;;;;;;0.20;0.20;;;;;;;1.87;100.00;102414.44;4994733;28;20057;-75
2022/10/09 05:48:53;;;;;;;0.10;0.10;;;;;;;1.90;100.00;102411.75;4979814;28;20706;-75
2022/10/09 05:51:24;;;;;;;0.10;0.10;;;;;;;2.00;100.00;102408.03;4975093;28;20034;-75
2022/10/09 05:53:50;;;;;;;0.20;0.20;;;;;;;2.10;100.00;102393.75;4977469;28;20037;-76
2022/10/09 05:56:27;;;;;;;0.10;0.10;;;;;;;2.38;100.00;102413.59;4987782;28;20026;-75
2022/10/09 05:58:57;;;;;;;0.20;0.20;;;;;;;2.47;100.00;102413.41;4983627;28;20037;-76
2022/10/09 06:01:25;;;;;;;0.20;0.20;;;;;;;2.52;100.00;102402.72;4976873;28;20022;-76
2022/10/09 06:03:52;;;;;;;0.10;0.10;;;;;;;2.28;100.00;102365.16;4978933;28;20022;-75
2022/10/09 06:06:18;;;;;;;0.10;0.10;;;;;;;2.43;100.00;102414.38;4991329;28;20030;-76
2022/10/09 06:08:44;;;;;;;0.20;0.20;;;;;;;2.47;100.00;102410.75;4976930;28;20435;-76
2022/10/09 06:11:23;;;;;;;0.10;0.10;;;;;;;2.62;100.00;102412.25;4975392;28;20026;-76
2022/10/09 06:13:49;;;;;;;0.10;0.10;;;;;;;2.72;100.00;102410.28;4975898;28;20089;-76
2022/10/09 06:16:15;;;;;;;0.13;0.13;;;;;;;2.61;100.00;102381.34;4971535;28;20030;-75
2022/10/09 06:18:42;;;;;;;0.10;0.10;;;;;;;2.78;100.00;102390.75;4978392;28;20030;-75
2022/10/09 06:21:08;;;;;;;0.10;0.10;;;;;;;2.99;100.00;102415.94;4975844;28;20029;-76
2022/10/09 06:23:33;;;;;;;0.10;0.10;;;;;;;2.98;100.00;102396.50;4974857;28;20026;-74
2022/10/09 06:26:01;;;;;;;0.10;0.10;;;;;;;2.98;100.00;102393.88;4970974;28;20038;-75
2022/10/09 06:28:27;;;;;;;0.20;0.20;;;;;;;3.30;100.00;102424.16;4971397;28;20037;-74
2022/10/09 06:30:53;;;;;;;0.10;0.10;;;;;;;3.34;100.00;102421.41;4978284;28;20034;-75
2022/10/09 06:33:18;;;;;;;0.10;0.10;;;;;;;3.41;100.00;102413.28;4960106;28;20045;-75
2022/10/09 06:35:43;;;;;;;0.10;0.10;;;;;;;3.38;100.00;102409.81;4954114;28;20176;-75
2022/10/09 06:38:09;;;;;;;0.10;0.10;;;;;;;3.56;100.00;102422.69;4971205;28;20069;-75
2022/10/09 06:40:37;;;;;;;0.10;0.10;;;;;;;3.59;100.00;102403.16;4959161;28;20519;-75
2022/10/09 06:43:03;;;;;;;0.13;0.13;;;;;;;3.73;100.00;102416.97;4974793;28;21562;-75
2022/10/09 06:45:29;;;;;;;0.10;0.10;;;;;;;3.83;100.00;102415.00;4972741;28;20659;-73
2022/10/09 06:47:54;;;;;;;0.15;0.15;;;;;;;3.93;100.00;102410.31;4978709;28;20050;-74
2022/10/09 06:50:20;;;;;;;0.20;0.20;;;;;;;4.08;100.00;102429.44;4971819;28;20073;-76
2022/10/09 06:52:45;;;;;;;0.20;0.20;;;;;;;4.03;100.00;102405.66;4973980;28;20034;-75
2022/10/09 06:55:10;;;;;;;0.17;0.17;;;;;;;4.22;100.00;102422.00;4978622;28;20077;-76
2022/10/09 06:57:36;;;;;;;0.20;0.20;;;;;;;4.26;100.00;102423.66;4971197;28;20177;-76
2022/10/09 07:00:01;;;;;;;0.10;0.10;;;;;;;4.20;100.00;102400.75;4972973;28;20026;-75
2022/10/09 07:02:27;;;;;;;0.10;0.10;;;;;;;4.45;100.00;102417.88;4973695;28;20045;-75
2022/10/09 07:04:52;;;;;;;0.10;0.10;;;;;;;4.52;100.00;102421.22;4971553;28;20030;-75
2022/10/09 07:07:17;;;;;;;0.10;0.10;;;;;;;4.62;100.00;102425.41;4978646;28;20033;-75
2022/10/09 07:09:43;;;;;;;0.10;0.10;;;;;;;4.68;100.00;102427.00;4975968;28;20058;-75
2022/10/09 07:12:08;;;;;;;0.10;0.10;;;;;;;4.65;100.00;102396.00;4975905;28;20038;-75
2022/10/09 07:14:33;;;;;;;0.10;0.10;;;;;;;4.82;100.00;102421.31;4972290;28;20481;-76
2022/10/09 07:16:59;;;;;;;0.10;0.10;;;;;;;4.88;100.00;102432.63;4971177;28;20112;-76
2022/10/09 07:19:24;;;;;;;0.10;0.10;;;;;;;4.84;100.00;102401.69;4972172;28;20041;-76
2022/10/09 07:21:49;;;;;;;0.13;0.13;;;;;;;5.09;100.00;102433.81;4971872;28;20038;-76
2022/10/09 07:24:15;;;;;;;0.20;0.20;;;;;;;5.13;100.00;102420.44;4970183;28;20129;-76
2022/10/09 07:26:43;;;;;;;0.10;0.10;;;;;;;5.31;100.00;102424.31;4973834;28;20536;-76
2022/10/09 07:29:11;;;;;;;0.20;0.20;;;;;;;5.40;100.00;102424.03;4971256;28;20140;-76
2022/10/09 07:31:36;;;;;;;0.10;0.10;;;;;;;5.49;100.00;102417.53;4977739;28;20035;-75
2022/10/09 07:34:02;;;;;;;0.10;0.10;;;;;;;5.56;100.00;102411.09;4974396;28;20058;-75
2022/10/09 07:36:27;;;;;;;0.13;0.13;;;;;;;5.70;100.00;102416.00;4976778;28;20100;-75
2022/10/09 07:38:55;;;;;;;0.10;0.10;;;;;;;5.90;100.00;102423.38;4976275;28;20026;-76
2022/10/09 07:41:21;;;;;;;0.22;0.22;;;;;;;6.06;100.00;102422.88;4977360;28;20045;-76
2022/10/09 07:43:47;;;;;;;0.10;0.10;;;;;;;6.10;100.00;102404.03;4976330;28;20038;-76
2022/10/09 07:46:14;;;;;;;0.10;0.10;;;;;;;6.34;100.00;102414.81;4973070;28;20064;-76
2022/10/09 07:48:40;;;;;;;0.20;0.20;;;;;;;6.37;100.00;102387.16;4974444;28;20106;-76
2022/10/09 07:51:22;;;;;;;0.10;0.10;;;;;;;6.71;100.00;102417.97;4988453;28;20088;-76
2022/10/09 07:53:48;;;;;;;0.20;0.20;;;;;;;6.92;100.00;102429.66;4976922;28;20034;-76
2022/10/09 07:56:16;;;;;;;0.20;0.20;;;;;;;7.07;100.00;102430.03;4975413;28;20113;-77
2022/10/09 07:58:42;;;;;;;0.10;0.10;;;;;;;7.19;100.00;102410.84;4976638;28;20030;-76
2022/10/09 08:01:08;;;;;;;0.10;0.10;;;;;;;7.38;100.00;102426.19;4976740;28;20072;-76
2022/10/09 08:03:34;;;;;;;0.10;0.10;;;;;;;7.42;100.00;102407.28;4974873;28;21031;-76
2022/10/09 08:05:59;;;;;;;0.13;0.13;;;;;;;7.64;100.00;102411.78;4990229;28;20029;-76
2022/10/09 08:08:25;;;;;;;0.10;0.10;;;;;;;7.94;100.00;102414.13;4980625;28;20030;-76
2022/10/09 08:10:50;;;;;;;0.10;0.10;;;;;;;8.01;100.00;102404.03;4974510;28;20121;-76
2022/10/09 08:13:15;;;;;;;0.10;0.10;;;;;;;8.25;100.00;102408.34;4979801;28;20030;-77
2022/10/09 08:15:42;;;;;;;0.15;0.15;;;;;;;8.51;100.00;102417.09;4974957;28;20583;-76
2022/10/09 08:18:09;;;;;;;0.13;0.13;;;;;;;8.47;100.00;102366.41;4974793;28;20460;-75
2022/10/09 08:20:34;;;;;;;0.10;0.10;;;;;;;8.88;100.00;102403.00;4970661;28;20125;-77
2022/10/09 08:22:59;;;;;;;0.10;0.10;;;;;;;9.09;100.00;102399.31;4975853;28;20022;-76
2022/10/09 08:25:24;;;;;;;0.10;0.10;;;;;;;9.23;100.00;102396.00;4976873;28;20121;-76
2022/10/09 08:27:53;;;;;;;0.10;0.10;;;;;;;9.37;100.00;102399.84;4974631;28;20034;-76
2022/10/09 08:30:18;;;;;;;0.20;0.20;;;;;;;9.53;100.00;102395.47;4972398;28;20030;-76
2022/10/09 08:32:44;;;;;;;0.10;0.10;;;;;;;9.77;100.00;102397.88;4975767;28;20030;-74
2022/10/09 08:35:09;;;;;;;0.20;0.20;;;;;;;9.83;100.00;102385.97;4978791;28;20030;-74
2022/10/09 08:37:34;;;;;;;0.20;0.20;;;;;;;10.06;100.00;102392.88;4979000;28;20041;-73
2022/10/09 08:40:00;;;;;;;0.20;0.20;;;;;;;10.18;100.00;102386.91;4980152;28;20133;-72
2022/10/09 08:42:45;;;;;;;0.10;0.10;;;;;;;10.37;100.00;102391.28;4990595;28;20117;-75
2022/10/09 08:45:16;;;;;;;0.05;0.05;;;;;;;10.50;100.00;102383.50;4983722;28;20034;-74
2022/10/09 08:47:47;;;;;;;0.10;0.10;;;;;;;10.72;100.00;102382.34;4982084;28;20026;-75
2022/10/09 08:50:21;;;;;;;0.10;0.10;;;;;;;10.85;97.94;102374.50;4978635;28;20093;-75
2022/10/09 08:53:04;;;;;;;0.10;0.10;;;;;;;11.12;98.96;102379.28;4978985;28;20061;-74
2022/10/09 08:55:44;;;;;;;0.10;0.10;;;;;;;11.22;95.66;102378.69;4978910;28;20461;-75
2022/10/09 08:58:15;;;;;;;0.10;0.10;;;;;;;11.35;96.83;102378.88;4980117;28;20061;-76
2022/10/09 09:01:01;;;;;;;0.10;0.10;;;;;;;11.43;94.42;102367.66;4983018;28;20077;-76
2022/10/09 09:03:43;;;;;;;0.15;0.15;;;;;;;11.44;93.84;102350.56;4963194;28;20037;-76
2022/10/09 09:06:14;;;;;;;0.10;0.10;;;;;;;11.51;92.91;102343.03;4980137;28;20145;-77
2022/10/09 09:08:44;;;;;;;0.10;0.10;;;;;;;11.89;93.59;102368.66;4974951;28;20038;-77
2022/10/09 09:11:18;;;;;;;0.10;0.10;;;;;;;12.03;87.75;102365.19;4981964;28;20392;-77
2022/10/09 09:13:47;;;;;;;0.15;0.15;;;;;;;12.10;88.40;102355.75;4997537;28;20037;-78
2022/10/09 09:16:34;;;;;;;0.10;0.10;;;;;;;12.16;89.67;102320.41;4964230;28;20030;-76
2022/10/09 09:19:19;;;;;;;0.00;0.00;;;;;;;12.49;84.53;102348.91;4982645;28;20065;-77
2022/10/09 09:21:51;;;;;;;0.20;0.20;;;;;;;12.59;84.96;102343.81;4999268;28;20076;-77
2022/10/09 09:24:25;;;;;;;0.10;0.10;;;;;;;12.93;87.60;102346.19;4967368;28;20037;-77
2022/10/09 09:26:52;;;;;;;0.10;0.10;;;;;;;13.10;83.20;102337.03;4983886;28;20061;-73
2022/10/09 09:29:22;;;;;;;0.10;0.10;;;;;;;13.23;83.78;102334.41;4986059;28;20046;-77
2022/10/09 09:31:50;;;;;;;0.10;0.10;;;;;;;13.23;80.98;102313.69;4980280;28;20090;-76
2022/10/09 09:34:22;;;;;;;0.10;0.10;;;;;;;13.53;81.56;102334.22;4986668;28;20100;-75
2022/10/09 09:36:57;;;;;;;0.00;0.00;;;;;;;13.44;79.94;102337.56;4976621;28;20720;-76
2022/10/09 09:39:25;;;;;;;0.10;0.10;;;;;;;13.70;80.71;102326.84;4984731;28;20026;-74
2022/10/09 09:41:51;;;;;;;0.10;0.10;;;;;;;13.95;80.24;102328.72;4999072;28;20041;-75
2022/10/09 09:44:17;;;;;;;0.00;0.00;;;;;;;14.15;79.09;102318.41;4977649;28;20663;-76
2022/10/09 09:46:44;;;;;;;0.05;0.05;;;;;;;14.24;77.73;102321.31;4981704;28;20089;-75
2022/10/09 09:49:22;;;;;;;0.10;0.10;;;;;;;14.42;78.66;102328.25;4979795;28;20034;-75
2022/10/09 09:51:48;;;;;;;0.10;0.10;;;;;;;14.53;76.93;102314.81;4968918;28;20030;-75
2022/10/09 09:54:28;;;;;;;0.20;0.20;;;;;;;14.51;75.57;102304.13;4961326;28;20057;-74
2022/10/09 09:56:57;;;;;;;0.10;0.10;;;;;;;14.72;75.60;102291.91;4984524;28;20080;-77
2022/10/09 09:59:36;;;;;;;0.10;0.10;;;;;;;14.78;75.86;102286.94;4980634;28;20137;-77
2022/10/09 10:02:04;;;;;;;0.10;0.10;;;;;;;15.05;71.61;102299.41;4979195;28;21152;-73
2022/10/09 10:04:30;;;;;;;0.10;0.10;;;;;;;15.36;70.66;102278.16;4975459;28;20457;-74
2022/10/09 10:06:58;;;;;;;0.10;0.10;;;;;;;15.52;72.47;102282.41;4974641;28;20424;-74
2022/10/09 10:09:23;;;;;;;0.10;0.10;;;;;;;15.71;70.77;102290.00;4957939;28;20022;-74
2022/10/09 10:12:00;;;;;;;0.10;0.10;;;;;;;16.07;68.81;102280.00;4976093;28;20113;-78
2022/10/09 10:14:25;;;;;;;0.10;0.10;;;;;;;16.09;68.31;102272.63;4973629;28;20030;-77
2022/10/09 10:16:53;;;;;;;0.10;0.10;;;;;;;16.42;68.25;102281.78;4973308;28;20057;-77
2022/10/09 10:19:33;;;;;;;0.10;0.10;;;;;;;15.92;66.26;102275.81;4956787;28;20165;-77
2022/10/09 10:22:01;;;;;;;0.00;0.00;;;;;;;16.01;67.19;102250.72;4991462;28;20057;-78
2022/10/09 10:24:31;;;;;;;0.10;0.10;;;;;;;16.45;68.40;102253.53;4980727;28;20030;-75
2022/10/09 10:27:13;;;;;;;0.10;0.10;;;;;;;16.37;63.15;102256.03;4982553;28;20172;-71
2022/10/09 10:29:44;;;;;;;0.10;0.10;;;;;;;16.44;62.21;102259.94;4976054;28;20030;-74
2022/10/09 10:32:43;;;;;;;0.10;0.10;;;;;;;16.63;60.63;102259.34;4974160;28;20034;-75
2022/10/09 10:35:16;;;;;;;0.10;0.10;;;;;;;16.52;63.19;102254.78;4972721;28;20133;-74
2022/10/09 10:38:00;;;;;;;0.08;0.08;;;;;;;16.96;62.90;102243.16;4978838;28;20018;-79
2022/10/09 10:40:32;;;;;;;;;;;;;;;17.34;62.82;102249.94;4979795;28;20076;-78
2022/10/09 10:43:15;;;;;;;0.10;0.10;;;;;;;17.05;60.04;102232.41;4980235;28;19918;-75
2022/10/09 10:46:02;;;;;;;0.10;0.10;;;;;;;17.31;59.69;102253.78;4979773;28;20088;-76
2022/10/09 10:48:42;;;;;;;0.08;0.08;;;;;;;17.08;59.78;102220.44;4974812;28;20034;-77
2022/10/09 10:51:32;;;;;;;0.10;0.10;;;;;;;17.79;55.45;102241.56;4981089;28;20025;-75
2022/10/09 10:54:07;;;;;;;0.10;0.10;;;;;;;17.78;55.73;102228.97;4990278;28;20580;-77
2022/10/09 10:56:46;;;;;;;0.10;0.10;;;;;;;18.73;55.21;102226.09;4978608;28;20453;-77
2022/10/09 10:59:26;;;;;;;0.10;0.10;;;;;;;18.83;53.87;102221.56;4958562;28;20027;-76
2022/10/09 11:01:58;;;;;;;0.00;0.00;;;;;;;19.04;51.06;102187.94;4973126;28;20493;-75
2022/10/09 11:04:51;;;;;;;0.10;0.10;;;;;;;19.22;49.19;102203.56;4974423;28;20053;-74
2022/10/09 11:07:19;;;;;;;0.08;0.08;;;;;;;19.76;50.60;102201.22;4988950;28;20054;-75
2022/10/09 11:09:53;;;;;;;0.10;0.10;;;;;;;19.25;48.53;102200.56;4978901;28;20026;-72
2022/10/09 11:12:26;;;;;;;0.10;0.10;;;;;;;19.42;48.71;102199.84;4978414;28;20057;-71
2022/10/09 11:15:20;;;;;;;0.03;0.03;;;;;;;19.47;49.13;102188.50;4971394;28;20068;-76
2022/10/09 11:18:04;;;;;;;0.10;0.10;;;;;;;20.55;45.96;102173.63;4974784;28;20030;-74
2022/10/09 11:20:50;;;;;;;0.10;0.10;;;;;;;21.54;44.93;102185.50;4984405;28;20030;-76
2022/10/09 11:23:18;;;;;;;0.10;0.10;;;;;;;22.76;42.67;102190.94;4975735;28;20477;-75
2022/10/09 11:26:18;;;;;;;0.10;0.10;;;;;;;22.64;41.40;102170.34;4970936;28;20041;-75
2022/10/09 11:29:14;;;;;;;0.00;0.00;;;;;;;21.65;42.21;102176.19;4934043;28;20046;-77
2022/10/09 11:31:52;;;;;;;0.03;0.03;;;;;;;20.49;44.96;102165.06;4955866;28;20428;-75
2022/10/09 11:34:22;;;;;;;0.00;0.00;;;;;;;21.23;43.98;102139.50;4978541;28;20116;-75